Terminal Aerodrome Forecast
Issued by NWS Albuquerque, NM

Home | Current Version | Previous Version | Text Only | Print | Product List | Glossary On
Versions: 1 2 3 4 5 6 7 8 9 10 11 12 13 14 15 16
475
FTUS45 KABQ 281143
TAFABQ
TAF
KABQ 281143Z 2812/2912 34010KT P6SM BKN090
     FM281500 28011KT P6SM OVC060
     FM281800 34011G21KT P6SM VCSH OVC060
      TEMPO 2819/2823 -SHRA SCT030 BKN050
     FM290100 03008KT P6SM BKN060
     FM290900 36006KT P6SM BKN035=

USA.gov is the U.S. government's official web portal to all federal, state and local government web resources and services.